createdAt,value
2017-07-08T00:02:22.380Z,17.10
2017-07-08T00:04:50.876Z,17.10
2017-07-08T00:07:19.220Z,17.10
2017-07-08T00:09:47.629Z,17.00
2017-07-08T00:12:16.766Z,17.10
2017-07-08T00:14:45.220Z,17.10
2017-07-08T00:17:13.521Z,17.10
2017-07-08T00:19:42.721Z,17.00
2017-07-08T00:22:11.209Z,17.00
2017-07-08T00:24:39.560Z,16.90
2017-07-08T00:27:07.903Z,16.90
2017-07-08T00:29:37.024Z,16.90
2017-07-08T00:32:05.395Z,16.90
2017-07-08T00:34:33.751Z,16.90
2017-07-08T00:37:02.065Z,16.80
2017-07-08T00:39:30.414Z,16.80
2017-07-08T00:41:58.861Z,16.80
2017-07-08T00:44:28.055Z,16.80
2017-07-08T00:46:56.409Z,16.70
2017-07-08T00:49:24.845Z,16.60
2017-07-08T00:51:53.161Z,16.60
2017-07-08T00:54:21.513Z,16.60
2017-07-08T00:56:49.876Z,16.60
2017-07-08T00:59:18.179Z,16.60
2017-07-08T01:01:46.480Z,16.60
2017-07-08T01:04:14.824Z,16.60
2017-07-08T01:06:43.123Z,16.60
2017-07-08T01:09:11.470Z,16.60
2017-07-08T01:11:39.830Z,16.70
2017-07-08T01:14:08.141Z,16.70
2017-07-08T01:16:36.501Z,16.70
2017-07-08T01:19:04.863Z,16.70
2017-07-08T01:21:33.164Z,16.70
2017-07-08T01:24:01.524Z,16.70
2017-07-08T01:26:30.137Z,16.70
2017-07-08T01:28:58.441Z,16.80
2017-07-08T01:31:26.788Z,16.70
2017-07-08T01:33:55.144Z,16.80
2017-07-08T01:36:23.552Z,16.70
2017-07-08T01:38:51.906Z,16.80
2017-07-08T01:41:20.335Z,16.70
2017-07-08T01:43:48.737Z,16.80
2017-07-08T01:46:17.803Z,16.70
2017-07-08T01:48:46.159Z,16.70
2017-07-08T01:51:14.504Z,16.80
2017-07-08T01:53:42.813Z,16.80
2017-07-08T01:56:11.407Z,16.80
2017-07-08T01:58:41.157Z,16.80
2017-07-08T02:01:09.500Z,16.80
2017-07-08T02:03:37.810Z,16.80
2017-07-08T02:06:06.933Z,16.70
2017-07-08T02:08:35.284Z,16.70
2017-07-08T02:11:03.588Z,16.80
2017-07-08T02:13:32.713Z,16.70
2017-07-08T02:16:01.810Z,16.60
2017-07-08T02:18:30.925Z,16.60
2017-07-08T02:21:00.001Z,16.60
2017-07-08T02:23:28.348Z,16.60
2017-07-08T02:25:56.653Z,16.60
2017-07-08T02:28:25.004Z,16.50
2017-07-08T02:30:54.101Z,16.50
2017-07-08T02:33:23.227Z,16.50
2017-07-08T02:35:52.209Z,16.50
2017-07-08T02:38:20.600Z,16.50
2017-07-08T02:40:48.954Z,16.40
2017-07-08T02:43:17.260Z,16.40
2017-07-08T02:45:45.785Z,16.40
2017-07-08T02:48:14.881Z,16.40
2017-07-08T02:50:43.273Z,16.40
2017-07-08T02:53:11.659Z,16.30
2017-07-08T02:55:39.975Z,16.30
2017-07-08T02:58:08.357Z,16.30
2017-07-08T03:00:37.493Z,16.30
2017-07-08T03:03:05.811Z,16.20
2017-07-08T03:05:34.235Z,16.30
2017-07-08T03:08:03.444Z,16.20
2017-07-08T03:10:32.571Z,16.00
2017-07-08T03:13:01.642Z,16.00
2017-07-08T03:15:30.001Z,16.00
2017-07-08T03:17:58.342Z,15.90
2017-07-08T03:20:27.425Z,15.90
2017-07-08T03:22:55.838Z,15.80
2017-07-08T03:25:24.138Z,15.80
2017-07-08T03:27:53.210Z,15.70
2017-07-08T03:30:21.560Z,15.70
2017-07-08T03:32:50.025Z,15.70
2017-07-08T03:35:20.045Z,15.80
2017-07-08T03:37:49.257Z,15.70
2017-07-08T03:40:18.333Z,15.80
2017-07-08T03:42:46.697Z,15.70
2017-07-08T03:45:15.000Z,15.80
2017-07-08T03:47:44.652Z,15.80
2017-07-08T03:50:12.997Z,15.70
2017-07-08T03:52:41.357Z,15.80
2017-07-08T03:55:10.604Z,15.80
2017-07-08T03:57:38.920Z,15.70
2017-07-08T04:00:07.239Z,15.80
2017-07-08T04:02:35.584Z,15.80
2017-07-08T04:05:03.895Z,15.80
2017-07-08T04:07:32.248Z,15.80
2017-07-08T04:10:00.806Z,15.80
2017-07-08T04:12:29.904Z,15.90
2017-07-08T04:14:58.298Z,15.90
2017-07-08T04:17:26.806Z,16.00
2017-07-08T04:19:55.900Z,16.20
2017-07-08T04:22:24.973Z,16.20
2017-07-08T04:24:53.312Z,16.10
2017-07-08T04:27:21.781Z,16.20
2017-07-08T04:29:50.102Z,16.20
2017-07-08T04:32:18.408Z,16.40
2017-07-08T04:34:46.758Z,16.30
2017-07-08T04:37:15.833Z,16.20
2017-07-08T04:39:44.250Z,16.20
2017-07-08T04:42:12.558Z,16.20
2017-07-08T04:44:40.932Z,16.20
2017-07-08T04:47:09.276Z,16.20
2017-07-08T04:49:37.619Z,16.20
2017-07-08T04:52:06.722Z,16.40
2017-07-08T04:54:35.081Z,16.30
2017-07-08T04:57:03.390Z,16.40
2017-07-08T04:59:31.732Z,16.20
2017-07-08T05:02:00.043Z,16.30
2017-07-08T05:04:28.452Z,16.30
2017-07-08T05:06:56.798Z,16.40
2017-07-08T05:09:25.256Z,16.40
2017-07-08T05:11:53.555Z,16.40
2017-07-08T05:14:22.677Z,16.60
2017-07-08T05:16:51.038Z,16.60
2017-07-08T05:19:19.719Z,16.60
2017-07-08T05:21:48.125Z,16.60
2017-07-08T05:24:16.476Z,16.70
2017-07-08T05:26:44.803Z,16.80
2017-07-08T05:29:13.191Z,16.80
2017-07-08T05:31:41.496Z,16.90
2017-07-08T05:34:10.710Z,16.80
2017-07-08T05:36:39.784Z,16.90
2017-07-08T05:39:08.080Z,16.90
2017-07-08T05:41:36.484Z,17.00
2017-07-08T05:44:04.796Z,17.10
2017-07-08T05:46:33.146Z,17.20
2017-07-08T05:49:01.497Z,17.20
2017-07-08T05:51:29.862Z,17.00
2017-07-08T05:53:58.937Z,17.00
2017-07-08T05:56:27.240Z,17.00
2017-07-08T05:58:56.556Z,17.20
2017-07-08T06:01:25.759Z,17.30
2017-07-08T06:03:54.128Z,17.40
2017-07-08T06:06:22.476Z,17.40
2017-07-08T06:08:50.828Z,17.40
2017-07-08T06:11:19.216Z,17.50
2017-07-08T06:13:48.337Z,17.60
2017-07-08T06:16:16.684Z,17.60
2017-07-08T06:18:45.033Z,17.70
2017-07-08T06:21:13.338Z,17.60
2017-07-08T06:23:41.690Z,17.50
2017-07-08T06:26:09.993Z,17.60
2017-07-08T06:28:39.114Z,17.70
2017-07-08T06:31:07.464Z,17.60
2017-07-08T06:33:35.979Z,17.80
2017-07-08T06:36:05.049Z,17.70
2017-07-08T06:38:33.375Z,17.70
2017-07-08T06:41:03.826Z,17.80
2017-07-08T06:43:32.185Z,17.80
2017-07-08T06:46:00.486Z,18.10
2017-07-08T06:48:28.781Z,18.30
2017-07-08T06:50:57.142Z,18.60
2017-07-08T06:53:25.490Z,18.80
2017-07-08T06:55:53.893Z,18.60
2017-07-08T06:58:22.200Z,18.50
2017-07-08T07:00:50.558Z,18.40
2017-07-08T07:03:18.920Z,18.50
2017-07-08T07:05:47.220Z,18.60
2017-07-08T07:08:15.738Z,18.60
2017-07-08T07:10:44.249Z,18.50
2017-07-08T07:13:12.559Z,18.60
2017-07-08T07:15:40.907Z,18.60
2017-07-08T07:18:09.204Z,18.50
2017-07-08T07:20:37.550Z,18.60
2017-07-08T07:23:05.903Z,18.60
2017-07-08T07:28:31.106Z,18.60
2017-07-08T07:31:00.436Z,18.60
2017-07-08T07:33:29.162Z,18.20
2017-07-08T07:35:57.708Z,18.20
2017-07-08T07:38:26.004Z,18.30
2017-07-08T07:40:54.311Z,18.20
2017-07-08T07:43:22.667Z,18.60
2017-07-08T07:45:50.997Z,18.90
2017-07-08T07:48:19.359Z,19.10
2017-07-08T07:50:47.756Z,19.30
2017-07-08T07:53:19.320Z,19.60
2017-07-08T07:55:53.961Z,19.70
2017-07-08T07:58:22.332Z,19.90
2017-07-08T08:00:50.650Z,20.00
2017-07-08T08:03:19.000Z,19.90
2017-07-08T08:05:47.375Z,20.00
2017-07-08T08:08:15.695Z,20.00
2017-07-08T08:10:44.117Z,20.00
2017-07-08T08:13:12.417Z,20.00
2017-07-08T08:15:40.797Z,19.90
2017-07-08T08:18:09.156Z,20.30
2017-07-08T08:20:37.683Z,20.40
2017-07-08T08:23:06.024Z,20.50
2017-07-08T08:25:34.338Z,20.70
2017-07-08T08:28:02.690Z,20.90
2017-07-08T08:30:31.070Z,20.60
2017-07-08T08:32:59.757Z,20.50
2017-07-08T08:35:28.130Z,20.80
2017-07-08T08:37:56.481Z,21.10
2017-07-08T08:40:24.787Z,21.00
2017-07-08T08:42:53.148Z,20.90
2017-07-08T08:45:21.520Z,20.80
2017-07-08T08:47:49.941Z,21.10
2017-07-08T08:50:18.401Z,21.70
2017-07-08T08:52:46.759Z,21.40
2017-07-08T08:55:15.961Z,21.40
2017-07-08T08:57:44.335Z,21.40
2017-07-08T09:00:12.669Z,21.00
2017-07-08T09:02:41.066Z,21.10
2017-07-08T09:05:10.141Z,21.30
2017-07-08T09:07:38.539Z,21.30
2017-07-08T09:10:06.871Z,21.60
2017-07-08T09:12:35.185Z,21.80
2017-07-08T09:15:03.751Z,22.10
2017-07-08T09:17:32.833Z,22.30
2017-07-08T09:20:03.147Z,22.50
2017-07-08T09:22:31.481Z,22.50
2017-07-08T09:24:59.788Z,22.40
2017-07-08T09:27:28.147Z,21.90
2017-07-08T09:29:56.468Z,21.40
2017-07-08T09:32:24.843Z,21.70
2017-07-08T09:34:53.422Z,22.00
2017-07-08T09:37:21.761Z,22.10
2017-07-08T09:39:51.383Z,21.90
2017-07-08T09:42:19.748Z,21.80
2017-07-08T09:44:48.089Z,22.20
2017-07-08T09:47:16.403Z,22.00
2017-07-08T09:49:44.781Z,21.70
2017-07-08T09:52:13.090Z,21.60
2017-07-08T09:54:41.401Z,21.70
2017-07-08T09:57:10.523Z,22.10
2017-07-08T09:59:38.846Z,22.10
2017-07-08T10:02:07.196Z,22.60
2017-07-08T10:04:35.503Z,22.60
2017-07-08T10:07:03.883Z,22.40
2017-07-08T10:09:32.189Z,22.70
2017-07-08T10:12:00.540Z,22.40
2017-07-08T10:14:29.669Z,22.00
2017-07-08T10:16:58.022Z,22.00
2017-07-08T10:19:26.346Z,22.30
2017-07-08T10:21:54.708Z,21.90
2017-07-08T10:24:23.789Z,22.80
2017-07-08T10:26:52.148Z,22.70
2017-07-08T10:29:20.459Z,23.50
2017-07-08T10:31:48.843Z,22.70
2017-07-08T10:34:17.233Z,22.90
2017-07-08T10:36:45.642Z,22.90
2017-07-08T10:39:14.302Z,22.80
2017-07-08T10:41:42.688Z,22.80
2017-07-08T10:44:11.068Z,22.90
2017-07-08T10:46:39.527Z,22.90
2017-07-08T10:49:07.818Z,22.90
2017-07-08T10:51:36.184Z,23.30
2017-07-08T10:54:04.544Z,23.20
2017-07-08T10:56:32.857Z,23.30
2017-07-08T10:59:01.209Z,23.60
2017-07-08T11:01:30.291Z,23.50
2017-07-08T11:03:58.634Z,23.40
2017-07-08T11:06:27.014Z,23.50
2017-07-08T11:08:55.360Z,24.10
2017-07-08T11:11:23.674Z,24.80
2017-07-08T11:13:52.813Z,23.80
2017-07-08T11:16:21.185Z,23.80
2017-07-08T11:18:50.240Z,24.60
2017-07-08T11:21:18.597Z,24.60
2017-07-08T11:23:47.656Z,24.60
2017-07-08T11:26:15.993Z,24.30
2017-07-08T11:28:44.370Z,24.40
2017-07-08T11:31:12.821Z,25.10
2017-07-08T11:33:41.125Z,25.00
2017-07-08T11:36:10.954Z,25.90
2017-07-08T11:38:39.303Z,25.40
2017-07-08T11:41:08.449Z,25.70
2017-07-08T11:43:36.802Z,26.00
2017-07-08T11:46:05.292Z,26.20
2017-07-08T11:48:33.655Z,25.60
2017-07-08T11:51:01.948Z,26.20
2017-07-08T11:53:31.335Z,26.40
2017-07-08T11:55:59.629Z,26.50
2017-07-08T11:58:28.692Z,26.60
2017-07-08T12:00:57.024Z,26.60
2017-07-08T12:03:26.079Z,25.40
2017-07-08T12:05:54.434Z,25.40
2017-07-08T12:08:22.734Z,24.90
2017-07-08T12:10:51.095Z,25.10
2017-07-08T12:13:19.384Z,24.60
2017-07-08T12:15:47.772Z,24.60
2017-07-08T12:18:16.086Z,25.20
2017-07-08T12:20:45.197Z,24.80
2017-07-08T12:23:14.294Z,24.60
2017-07-08T12:25:43.404Z,25.00
2017-07-08T12:28:12.477Z,25.20
2017-07-08T12:30:40.799Z,25.20
2017-07-08T12:33:09.139Z,25.00
2017-07-08T12:35:37.444Z,25.60
2017-07-08T12:38:05.906Z,25.40
2017-07-08T12:40:34.200Z,25.70
2017-07-08T12:43:03.747Z,26.30
2017-07-08T12:45:32.131Z,27.00
2017-07-08T12:48:00.427Z,27.10
2017-07-08T12:50:30.631Z,27.20
2017-07-08T12:52:58.924Z,27.10
2017-07-08T12:55:27.224Z,27.40
2017-07-08T12:57:55.568Z,27.20
2017-07-08T13:00:24.672Z,26.40
2017-07-08T13:02:52.982Z,26.40
2017-07-08T13:05:21.333Z,26.30
2017-07-08T13:07:49.635Z,26.30
2017-07-08T13:10:18.780Z,25.60
2017-07-08T13:12:47.084Z,25.50
2017-07-08T13:15:15.420Z,25.40
2017-07-08T13:17:43.793Z,25.80
2017-07-08T13:20:12.084Z,26.00
2017-07-08T13:22:40.430Z,25.80
2017-07-08T13:25:08.732Z,25.80
2017-07-08T13:27:37.034Z,25.90
2017-07-08T13:30:05.389Z,25.90
2017-07-08T13:32:33.692Z,25.50
2017-07-08T13:35:03.030Z,25.40
2017-07-08T13:37:31.383Z,25.20
2017-07-08T13:39:59.670Z,25.30
2017-07-08T13:42:27.978Z,25.00
2017-07-08T13:44:56.323Z,25.00
2017-07-08T13:47:25.395Z,24.60
2017-07-08T13:49:53.748Z,24.60
2017-07-08T13:52:22.059Z,24.70
2017-07-08T13:54:50.516Z,24.90
2017-07-08T13:57:18.824Z,25.10
2017-07-08T13:59:47.144Z,25.60
2017-07-08T14:02:15.484Z,26.10
2017-07-08T14:04:44.545Z,25.70
2017-07-08T14:07:12.902Z,25.70
2017-07-08T14:09:41.201Z,26.00
2017-07-08T14:12:09.546Z,26.10
2017-07-08T14:14:38.047Z,26.10
2017-07-08T14:17:06.351Z,26.50
2017-07-08T14:19:34.664Z,26.20
2017-07-08T14:22:03.032Z,26.40
2017-07-08T14:24:31.408Z,26.60
2017-07-08T14:27:00.538Z,27.50
2017-07-08T14:29:28.883Z,27.50
2017-07-08T14:31:57.189Z,27.50
2017-07-08T14:34:25.559Z,26.90
2017-07-08T14:36:53.896Z,27.40
2017-07-08T14:39:22.216Z,27.40
2017-07-08T14:41:50.577Z,27.30
2017-07-08T14:44:18.891Z,27.20
2017-07-08T14:46:47.223Z,26.90
2017-07-08T14:49:15.517Z,26.20
2017-07-08T14:51:43.865Z,26.00
2017-07-08T14:54:12.243Z,25.70
2017-07-08T14:56:40.584Z,25.40
2017-07-08T14:59:09.448Z,24.90
2017-07-08T15:01:37.789Z,24.70
2017-07-08T15:04:06.907Z,24.80
2017-07-08T15:06:35.363Z,24.80
2017-07-08T15:09:03.703Z,24.70
2017-07-08T15:11:32.022Z,24.60
2017-07-08T15:14:00.380Z,24.80
2017-07-08T15:16:28.732Z,25.00
2017-07-08T15:18:57.397Z,24.90
2017-07-08T15:21:28.796Z,24.80
2017-07-08T15:23:57.091Z,24.70
2017-07-08T15:26:25.391Z,24.50
2017-07-08T15:28:54.610Z,24.60
2017-07-08T15:31:22.931Z,24.50
2017-07-08T15:33:51.253Z,24.40
2017-07-08T15:36:19.609Z,23.90
2017-07-08T15:38:48.052Z,23.80
2017-07-08T15:41:16.350Z,23.80
2017-07-08T15:43:44.651Z,23.70
2017-07-08T15:46:13.799Z,23.80
2017-07-08T15:48:42.137Z,23.80
2017-07-08T15:51:10.436Z,23.70
2017-07-08T15:53:39.667Z,23.50
2017-07-08T15:56:08.046Z,23.50
2017-07-08T15:58:36.345Z,23.50
2017-07-08T16:01:04.694Z,23.50
2017-07-08T16:03:33.048Z,23.30
2017-07-08T16:06:01.382Z,23.20
2017-07-08T16:08:32.053Z,23.20
2017-07-08T16:11:00.406Z,23.40
2017-07-08T16:13:28.708Z,23.60
2017-07-08T16:15:57.038Z,23.40
2017-07-08T16:18:25.380Z,23.60
2017-07-08T16:20:53.991Z,23.50
2017-07-08T16:23:24.027Z,23.70
2017-07-08T16:25:52.333Z,23.60
2017-07-08T16:28:20.682Z,23.80
2017-07-08T16:30:49.039Z,23.80
2017-07-08T16:33:17.389Z,23.80
2017-07-08T16:35:45.694Z,23.50
2017-07-08T16:38:14.714Z,23.40
2017-07-08T16:40:43.090Z,23.30
2017-07-08T16:43:11.454Z,23.20
2017-07-08T16:45:39.805Z,23.20
2017-07-08T16:48:08.156Z,23.10
2017-07-08T16:50:36.479Z,23.10
2017-07-08T16:53:04.861Z,23.10
2017-07-08T16:55:33.187Z,23.20
2017-07-08T16:58:01.506Z,23.20
2017-07-08T17:00:30.242Z,23.30
2017-07-08T17:02:58.537Z,23.30
2017-07-08T17:05:26.860Z,23.20
2017-07-08T17:07:55.210Z,23.10
2017-07-08T17:10:23.519Z,23.00
2017-07-08T17:12:51.880Z,22.90
2017-07-08T17:15:20.172Z,22.80
2017-07-08T17:17:48.509Z,22.80
2017-07-08T17:20:16.848Z,22.60
2017-07-08T17:22:45.150Z,22.60
2017-07-08T17:25:13.487Z,22.60
2017-07-08T17:27:41.783Z,22.70
2017-07-08T17:30:10.594Z,22.60
2017-07-08T17:32:39.709Z,22.40
2017-07-08T17:35:08.021Z,22.40
2017-07-08T17:37:36.388Z,22.40
2017-07-08T17:40:05.453Z,22.30
2017-07-08T17:42:33.803Z,22.30
2017-07-08T17:45:03.376Z,22.30
2017-07-08T17:47:32.560Z,22.00
2017-07-08T17:50:00.923Z,22.10
2017-07-08T17:52:29.255Z,22.10
2017-07-08T17:54:58.518Z,22.20
2017-07-08T17:57:26.867Z,22.20
2017-07-08T17:59:55.216Z,22.10
2017-07-08T18:02:23.559Z,22.00
2017-07-08T18:04:51.855Z,22.00
2017-07-08T18:07:21.000Z,22.00
2017-07-08T18:09:49.330Z,21.90
2017-07-08T18:12:17.684Z,21.90
2017-07-08T18:14:45.991Z,21.80
2017-07-08T18:17:14.281Z,21.80
2017-07-08T18:19:49.124Z,21.70
2017-07-08T18:22:17.431Z,21.60
2017-07-08T18:24:45.745Z,21.60
2017-07-08T18:27:14.236Z,21.50
2017-07-08T18:29:42.566Z,21.50
2017-07-08T18:32:11.156Z,21.60
2017-07-08T18:34:39.544Z,21.50
2017-07-08T18:37:07.853Z,21.50
2017-07-08T18:39:36.225Z,21.50
2017-07-08T18:42:05.334Z,21.50
2017-07-08T18:44:33.681Z,21.50
2017-07-08T18:47:03.223Z,21.50
2017-07-08T18:49:31.582Z,21.40
2017-07-08T18:52:00.059Z,21.40
2017-07-08T18:54:28.605Z,21.40
2017-07-08T18:56:57.972Z,21.40
2017-07-08T18:59:26.467Z,21.30
2017-07-08T19:01:54.880Z,21.20
2017-07-08T19:04:23.188Z,21.10
2017-07-08T19:06:51.670Z,21.10
2017-07-08T19:09:21.001Z,21.20
2017-07-08T19:11:54.234Z,21.20
2017-07-08T19:14:22.811Z,21.00
2017-07-08T19:16:52.054Z,20.70
2017-07-08T19:19:20.609Z,20.70
2017-07-08T19:21:49.901Z,20.40
2017-07-08T19:24:19.077Z,20.40
2017-07-08T19:26:47.421Z,20.40
2017-07-08T19:29:16.486Z,20.10
2017-07-08T19:31:44.850Z,20.10
2017-07-08T19:34:13.158Z,19.90
2017-07-08T19:36:41.570Z,19.80
2017-07-08T19:39:09.917Z,19.60
2017-07-08T19:41:38.236Z,19.50
2017-07-08T19:44:06.851Z,19.50
2017-07-08T19:46:35.147Z,19.40
2017-07-08T19:49:05.614Z,19.40
2017-07-08T19:51:33.941Z,19.40
2017-07-08T19:54:03.616Z,19.50
2017-07-08T19:56:32.868Z,19.40
2017-07-08T19:59:01.283Z,19.40
2017-07-08T20:01:29.577Z,19.20
2017-07-08T20:03:57.920Z,19.20
2017-07-08T20:06:26.204Z,19.10
2017-07-08T20:08:54.865Z,19.00
2017-07-08T20:11:23.176Z,18.90
2017-07-08T20:13:51.525Z,18.80
2017-07-08T20:16:19.889Z,18.70
2017-07-08T20:18:48.204Z,18.60
2017-07-08T20:21:16.521Z,18.60
2017-07-08T20:23:44.878Z,18.50
2017-07-08T20:26:19.084Z,18.50
2017-07-08T20:28:48.574Z,18.40
2017-07-08T20:31:16.877Z,18.30
2017-07-08T20:33:45.243Z,18.30
2017-07-08T20:36:13.549Z,18.20
2017-07-08T20:38:41.923Z,18.10
2017-07-08T20:41:11.074Z,18.10
2017-07-08T20:43:39.433Z,18.20
2017-07-08T20:46:08.535Z,18.30
2017-07-08T20:48:37.599Z,18.30
2017-07-08T20:51:06.084Z,18.30
2017-07-08T20:53:34.386Z,18.20
2017-07-08T20:56:02.715Z,18.20
2017-07-08T20:58:32.001Z,18.00
2017-07-08T21:01:00.313Z,18.00
2017-07-08T21:03:28.605Z,18.00
2017-07-08T21:05:56.966Z,18.00
2017-07-08T21:08:25.260Z,18.00
2017-07-08T21:10:53.570Z,18.00
2017-07-08T21:13:21.942Z,18.00
2017-07-08T21:15:50.241Z,18.00
2017-07-08T21:18:19.477Z,18.00
2017-07-08T21:20:48.613Z,17.90
2017-07-08T21:23:16.912Z,17.80
2017-07-08T21:25:50.970Z,17.90
2017-07-08T21:28:19.273Z,17.90
2017-07-08T21:30:48.643Z,18.10
2017-07-08T21:33:16.992Z,18.10
2017-07-08T21:35:46.916Z,18.00
2017-07-08T21:38:15.358Z,18.00
2017-07-08T21:40:43.709Z,18.00
2017-07-08T21:43:12.001Z,18.10
2017-07-08T21:45:40.357Z,18.10
2017-07-08T21:48:08.653Z,18.10
2017-07-08T21:50:36.991Z,18.10
2017-07-08T21:53:05.354Z,18.00
2017-07-08T21:55:34.448Z,18.20
2017-07-08T21:58:03.518Z,18.10
2017-07-08T22:00:31.869Z,18.10
2017-07-08T22:03:00.219Z,18.10
2017-07-08T22:05:28.512Z,18.10
2017-07-08T22:07:56.810Z,18.00
2017-07-08T22:10:25.155Z,18.10
2017-07-08T22:12:53.490Z,18.10
2017-07-08T22:15:21.788Z,18.10
2017-07-08T22:17:50.906Z,18.10
2017-07-08T22:20:19.967Z,18.00
2017-07-08T22:22:48.262Z,18.00
2017-07-08T22:25:16.616Z,18.00
2017-07-08T22:27:44.939Z,18.10
2017-07-08T22:30:13.295Z,18.10
2017-07-08T22:32:41.596Z,18.10
2017-07-08T22:35:09.896Z,18.20
2017-07-08T22:37:38.256Z,18.20
2017-07-08T22:40:06.557Z,18.10
2017-07-08T22:42:34.858Z,18.20
2017-07-08T22:45:04.568Z,18.00
2017-07-08T22:47:32.879Z,18.00
2017-07-08T22:50:01.240Z,17.90
2017-07-08T22:52:29.602Z,18.00
2017-07-08T22:54:58.722Z,18.00
2017-07-08T22:57:27.844Z,18.00
2017-07-08T22:59:56.212Z,18.00
2017-07-08T23:02:25.319Z,18.00
2017-07-08T23:04:54.429Z,18.00
2017-07-08T23:07:23.004Z,17.90
2017-07-08T23:09:51.665Z,18.00
2017-07-08T23:12:19.965Z,17.90
2017-07-08T23:14:48.347Z,18.00
2017-07-08T23:17:17.098Z,17.80
2017-07-08T23:19:45.461Z,17.70
2017-07-08T23:22:13.773Z,17.70
2017-07-08T23:24:42.142Z,17.70
2017-07-08T23:27:10.491Z,17.80
2017-07-08T23:29:39.048Z,17.90
2017-07-08T23:32:07.352Z,17.90
2017-07-08T23:34:36.625Z,17.80
2017-07-08T23:37:05.081Z,17.90
2017-07-08T23:39:33.386Z,17.90
2017-07-08T23:42:01.691Z,17.80
2017-07-08T23:44:30.039Z,17.80
2017-07-08T23:46:58.399Z,17.70
2017-07-08T23:49:26.700Z,17.70
2017-07-08T23:51:55.057Z,17.70
2017-07-08T23:54:23.415Z,17.70
2017-07-08T23:56:51.766Z,17.70
2017-07-08T23:59:20.105Z,17.70
